Time;durP1;ratioP1;P1;durP2;ratioP2;P2;SDS_P1;SDS_P2;PMS_P1;PMS_P2;Temp;Humidity;BMP_temperature;BMP_pressure;BME280_temperature;BME280_humidity;BME280_pressure;Samples;Min_cycle;Max_cycle;Signal;HPM_P1;HPM_P2
2021/07/06 00:00:16;;;;;;;5.45;2.10;;;;;;;15.44;91.02;96282.00;5031192;28;20065;-66
2021/07/06 00:02:43;;;;;;;9.45;1.60;;;;;;;15.43;90.88;96287.91;5040077;28;20040;-63
2021/07/06 00:05:10;;;;;;;2.22;1.30;;;;;;;15.40;91.30;96281.25;5025560;28;20046;-63
2021/07/06 00:07:35;;;;;;;2.47;1.42;;;;;;;15.35;91.30;96270.66;5030074;28;20386;-65
2021/07/06 00:10:04;;;;;;;8.38;1.42;;;;;;;15.31;91.67;96269.13;5040473;28;20056;-62
2021/07/06 00:12:29;;;;;;;4.15;1.67;;;;;;;15.30;91.62;96262.81;5035538;28;20049;-61
2021/07/06 00:14:55;;;;;;;10.35;1.83;;;;;;;15.27;91.35;96263.66;5056304;28;20105;-64
2021/07/06 00:17:21;;;;;;;4.00;1.70;;;;;;;15.27;91.34;96263.66;5055040;28;20036;-63
2021/07/06 00:19:48;;;;;;;3.25;1.45;;;;;;;15.28;91.14;96254.16;5029742;28;20033;-65
2021/07/06 00:22:13;;;;;;;6.00;1.75;;;;;;;15.33;91.13;96256.47;5033175;28;20095;-63
2021/07/06 00:24:39;;;;;;;3.05;1.73;;;;;;;15.27;91.31;96258.91;5040031;28;20045;-63
2021/07/06 00:27:04;;;;;;;5.13;1.77;;;;;;;15.26;91.26;96253.78;5035860;28;20045;-63
2021/07/06 00:29:30;;;;;;;3.10;1.70;;;;;;;15.22;91.61;96242.00;5040650;28;20045;-65
2021/07/06 00:31:56;;;;;;;10.05;1.70;;;;;;;15.20;91.88;96244.41;5041218;28;20124;-65
2021/07/06 00:34:21;;;;;;;4.38;1.70;;;;;;;15.33;91.15;96233.63;5033001;28;20033;-66
2021/07/06 00:36:47;;;;;;;1.88;1.20;;;;;;;15.35;90.89;96234.00;5039925;28;20094;-64
2021/07/06 00:39:13;;;;;;;3.72;1.50;;;;;;;15.47;90.14;96234.25;5036103;28;20127;-63
2021/07/06 00:41:39;;;;;;;2.97;1.70;;;;;;;15.47;90.27;96228.75;5062617;28;20149;-63
2021/07/06 00:44:05;;;;;;;1.65;1.10;;;;;;;15.52;89.82;96232.25;5048867;28;20051;-63
2021/07/06 00:46:30;;;;;;;3.05;1.25;;;;;;;15.45;90.30;96224.84;5043026;28;20045;-64
2021/07/06 00:48:56;;;;;;;2.72;1.30;;;;;;;15.57;89.33;96221.53;5042504;28;20103;-64
2021/07/06 00:51:22;;;;;;;2.70;1.33;;;;;;;15.50;89.66;96224.38;5038833;28;20482;-65
2021/07/06 00:53:48;;;;;;;4.85;1.10;;;;;;;15.57;89.15;96218.78;5044922;28;20569;-63
2021/07/06 00:56:13;;;;;;;4.75;1.15;;;;;;;15.66;88.15;96212.78;5037815;28;20130;-64
2021/07/06 00:58:39;;;;;;;1.95;1.30;;;;;;;15.60;88.67;96211.66;5045959;28;20068;-62
2021/07/06 01:01:04;;;;;;;2.97;1.15;;;;;;;15.59;88.93;96210.09;5049661;28;20036;-62
2021/07/06 01:03:33;;;;;;;3.72;1.30;;;;;;;15.54;88.89;96197.53;5052103;28;20397;-63
2021/07/06 01:05:59;;;;;;;4.93;1.38;;;;;;;15.48;89.46;96208.25;5062440;28;20067;-63
2021/07/06 01:08:25;;;;;;;3.42;1.27;;;;;;;15.37;89.84;96190.22;5052898;28;20829;-63
2021/07/06 01:10:52;;;;;;;2.90;1.38;;;;;;;15.43;89.65;96194.91;5043625;28;20037;-64
2021/07/06 01:13:19;;;;;;;1.88;1.38;;;;;;;15.45;89.49;96195.25;5039998;28;20045;-63
2021/07/06 01:15:45;;;;;;;3.38;1.10;;;;;;;15.47;89.11;96197.63;5063550;28;20071;-64
2021/07/06 01:18:13;;;;;;;3.30;1.23;;;;;;;15.44;89.28;96198.44;5058194;28;20075;-64
2021/07/06 01:20:51;;;;;;;3.97;1.20;;;;;;;15.43;89.29;96194.91;5056743;28;20443;-64
2021/07/06 01:23:20;;;;;;;3.35;1.00;;;;;;;15.44;88.98;96187.38;5050039;28;20045;-64
2021/07/06 01:25:46;;;;;;;3.85;1.30;;;;;;;15.55;88.25;96190.81;5051201;28;20112;-63
2021/07/06 01:28:12;;;;;;;3.50;0.98;;;;;;;15.52;88.43;96191.66;5046569;28;20435;-63
2021/07/06 01:30:38;;;;;;;5.38;1.60;;;;;;;15.47;88.73;96187.34;5055788;28;20045;-62
2021/07/06 01:33:05;;;;;;;3.13;1.08;;;;;;;15.41;88.92;96179.94;5054214;28;20373;-64
2021/07/06 01:35:31;;;;;;;2.08;1.20;;;;;;;15.27;89.77;96167.09;5054994;28;20439;-66
2021/07/06 01:37:59;;;;;;;4.28;1.10;;;;;;;15.34;88.80;96161.50;5051007;28;20044;-63
2021/07/06 01:40:26;;;;;;;2.42;1.20;;;;;;;15.46;88.12;96165.69;5046784;28;20132;-63
2021/07/06 01:42:53;;;;;;;3.33;1.10;;;;;;;15.45;87.92;96159.38;5046915;28;20118;-63
2021/07/06 01:45:24;;;;;;;2.38;0.90;;;;;;;15.51;87.63;96159.72;5049209;28;20045;-63
2021/07/06 01:47:55;;;;;;;2.22;1.00;;;;;;;15.46;87.95;96149.91;5038339;28;20040;-63
2021/07/06 01:50:33;;;;;;;2.83;0.90;;;;;;;15.46;87.84;96146.38;5048380;28;20070;-63
2021/07/06 01:53:01;;;;;;;2.63;1.08;;;;;;;15.44;87.75;96151.50;5058382;28;20041;-62
2021/07/06 01:55:35;;;;;;;3.70;1.10;;;;;;;15.43;87.63;96147.19;5052816;28;20045;-65
2021/07/06 01:58:02;;;;;;;1.65;1.00;;;;;;;15.47;87.41;96147.94;5050203;28;20040;-65
2021/07/06 02:00:35;;;;;;;1.85;1.02;;;;;;;15.46;87.36;96147.13;5040102;28;20494;-64
2021/07/06 02:03:03;;;;;;;2.63;1.00;;;;;;;15.48;87.00;96138.44;5045644;28;20644;-63
2021/07/06 02:05:33;;;;;;;2.47;1.00;;;;;;;15.43;87.43;96147.19;5053101;28;20040;-64
2021/07/06 02:08:00;;;;;;;1.88;0.88;;;;;;;15.32;87.88;96143.78;5044787;28;20083;-64
2021/07/06 02:10:27;;;;;;;2.15;0.93;;;;;;;15.35;87.58;96138.22;5045471;28;20049;-65
2021/07/06 02:12:53;;;;;;;3.28;1.63;;;;;;;15.29;88.03;96132.38;5044811;28;20064;-64
2021/07/06 02:15:20;;;;;;;2.83;1.00;;;;;;;15.24;88.00;96124.53;5047251;28;20037;-64
2021/07/06 02:17:46;;;;;;;3.70;1.13;;;;;;;15.22;88.36;96129.69;5052291;28;20109;-65
2021/07/06 02:20:14;;;;;;;4.05;1.00;;;;;;;15.22;88.28;96134.44;5046213;28;20515;-65
2021/07/06 02:22:42;;;;;;;5.07;1.25;;;;;;;15.19;88.46;96130.50;5045289;28;20118;-65
2021/07/06 02:25:09;;;;;;;3.55;0.93;;;;;;;15.23;87.95;96125.75;5036926;28;20041;-63
2021/07/06 02:27:35;;;;;;;3.42;0.85;;;;;;;15.27;87.72;96129.25;5050983;28;20124;-65
2021/07/06 02:30:01;;;;;;;2.70;0.95;;;;;;;15.20;88.16;96132.06;5040976;28;20051;-64
2021/07/06 02:32:26;;;;;;;1.17;0.80;;;;;;;15.12;88.90;96132.56;5018780;28;20565;-64
2021/07/06 02:34:52;;;;;;;1.25;0.95;;;;;;;15.11;88.81;96129.03;5048544;28;20041;-63
2021/07/06 02:37:18;;;;;;;1.80;0.85;;;;;;;15.13;88.73;96129.41;5042644;28;20114;-64
2021/07/06 02:39:45;;;;;;;3.38;0.80;;;;;;;15.12;88.73;96127.81;5055527;28;20520;-64
2021/07/06 02:42:10;;;;;;;2.72;1.15;;;;;;;15.18;87.96;96125.38;5044745;28;20045;-63
2021/07/06 02:44:36;;;;;;;1.73;1.00;;;;;;;15.14;88.39;96122.66;5049749;28;20378;-65
2021/07/06 02:47:02;;;;;;;4.85;1.10;;;;;;;15.16;87.98;96117.56;5043268;28;20394;-65
2021/07/06 02:49:27;;;;;;;2.38;0.80;;;;;;;15.20;88.03;96129.31;5040868;28;20052;-64
2021/07/06 02:51:53;;;;;;;2.97;1.00;;;;;;;15.23;87.39;96127.69;5057544;28;20044;-63
2021/07/06 02:54:18;;;;;;;2.00;1.10;;;;;;;15.17;87.59;96127.38;5051022;28;20159;-63
2021/07/06 02:56:44;;;;;;;2.78;1.10;;;;;;;15.16;87.72;96128.59;5046011;28;20544;-64
2021/07/06 02:59:09;;;;;;;1.83;0.80;;;;;;;15.23;87.29;96135.97;5044187;28;20075;-64
2021/07/06 03:01:35;;;;;;;1.58;0.95;;;;;;;15.19;87.44;96133.25;5044663;28;20036;-65
2021/07/06 03:04:00;;;;;;;3.55;1.00;;;;;;;15.29;86.46;96131.59;5047440;28;20043;-65
2021/07/06 03:06:28;;;;;;;5.90;1.08;;;;;;;15.25;87.01;96128.06;5045727;28;20068;-65
2021/07/06 03:08:55;;;;;;;1.73;0.80;;;;;;;15.07;88.25;96126.31;5036859;28;20044;-65
2021/07/06 03:11:21;;;;;;;2.75;1.00;;;;;;;15.00;88.59;96122.81;5032495;28;20043;-66
2021/07/06 03:13:47;;;;;;;4.20;1.08;;;;;;;14.99;88.34;96129.53;5052347;28;20048;-65
2021/07/06 03:16:12;;;;;;;2.05;1.23;;;;;;;14.91;88.59;96124.09;5044316;28;20525;-63
2021/07/06 03:18:37;;;;;;;4.97;0.98;;;;;;;14.92;88.75;96130.38;5045784;28;20140;-64
2021/07/06 03:21:03;;;;;;;2.25;1.20;;;;;;;14.91;88.24;96124.09;5049214;28;20036;-63
2021/07/06 03:23:29;;;;;;;2.63;1.10;;;;;;;14.88;88.83;96133.19;5050942;28;20045;-64
2021/07/06 03:25:54;;;;;;;3.17;1.45;;;;;;;14.86;88.89;96129.28;5048015;28;20088;-64
2021/07/06 03:28:20;;;;;;;3.83;0.95;;;;;;;14.82;89.29;96123.81;5043540;28;20393;-64
2021/07/06 03:30:45;;;;;;;1.40;1.00;;;;;;;14.79;89.62;96126.59;5042964;28;20044;-64
2021/07/06 03:33:11;;;;;;;4.07;1.10;;;;;;;14.75;89.50;96121.09;5046199;28;20042;-64
2021/07/06 03:35:37;;;;;;;1.75;0.90;;;;;;;14.72;89.40;96121.91;5047795;28;20124;-64
2021/07/06 03:38:04;;;;;;;2.28;0.77;;;;;;;14.69;89.57;96125.47;5044403;28;20146;-61
2021/07/06 03:40:30;;;;;;;3.28;1.25;;;;;;;14.70;89.66;96121.53;5042102;28;20049;-64
2021/07/06 03:42:56;;;;;;;4.97;1.17;;;;;;;14.70;89.32;96122.31;5018489;28;20049;-65
2021/07/06 03:45:22;;;;;;;2.75;1.00;;;;;;;14.76;88.81;96119.13;5044087;28;20110;-65
2021/07/06 03:47:48;;;;;;;1.33;0.88;;;;;;;14.75;89.03;96112.03;5047741;28;20524;-64
2021/07/06 03:50:18;;;;;;;2.13;0.98;;;;;;;14.74;89.24;96122.28;5051850;28;20060;-65
2021/07/06 03:52:48;;;;;;;1.95;0.80;;;;;;;14.77;89.27;96121.47;5055897;28;20079;-64
2021/07/06 03:55:14;;;;;;;3.53;1.48;;;;;;;14.77;89.33;96115.19;5042863;28;20110;-64
2021/07/06 03:57:41;;;;;;;3.38;1.45;;;;;;;14.83;90.19;96124.56;5045680;28;20796;-64
2021/07/06 04:00:12;;;;;;;2.95;0.90;;;;;;;14.88;88.97;96122.16;5033032;28;20464;-64
2021/07/06 04:02:38;;;;;;;3.55;1.55;;;;;;;15.00;88.81;96125.56;5038496;28;20044;-64
2021/07/06 04:05:06;;;;;;;3.05;1.30;;;;;;;15.05;88.14;96119.63;5030102;28;20408;-64
2021/07/06 04:07:31;;;;;;;2.33;1.00;;;;;;;15.17;88.01;96115.56;5056301;28;20049;-64
2021/07/06 04:09:57;;;;;;;2.45;0.90;;;;;;;15.29;87.12;96117.78;5051317;28;20108;-64
2021/07/06 04:12:25;;;;;;;4.60;1.10;;;;;;;15.28;86.70;96110.69;5027068;28;20052;-67
2021/07/06 04:14:51;;;;;;;2.05;1.02;;;;;;;15.43;86.36;96106.59;5048938;28;20047;-64
2021/07/06 04:17:16;;;;;;;3.17;0.88;;;;;;;15.48;86.13;96105.34;5044570;28;20148;-66
2021/07/06 04:19:42;;;;;;;2.80;0.90;;;;;;;15.63;84.32;96100.44;5053210;28;20037;-65
2021/07/06 04:22:07;;;;;;;2.05;0.90;;;;;;;15.78;84.18;96098.28;5049383;28;20573;-65
2021/07/06 04:24:33;;;;;;;1.42;0.82;;;;;;;15.83;83.74;96103.34;5062524;28;20454;-65
2021/07/06 04:26:59;;;;;;;1.65;0.65;;;;;;;15.92;83.47;96098.09;5063257;28;20067;-65
2021/07/06 04:29:26;;;;;;;2.95;1.40;;;;;;;15.98;83.65;96090.13;5036533;28;20622;-65
2021/07/06 04:31:52;;;;;;;2.72;0.90;;;;;;;16.03;83.13;96087.66;5050727;28;20385;-64
2021/07/06 04:34:18;;;;;;;3.13;0.85;;;;;;;16.23;82.66;96086.97;5046843;28;20051;-65
2021/07/06 04:36:44;;;;;;;4.00;0.93;;;;;;;16.33;81.18;96079.69;5051663;28;20124;-65
2021/07/06 04:39:09;;;;;;;1.88;0.70;;;;;;;16.43;81.22;96079.53;5050641;28;20408;-65
2021/07/06 04:41:35;;;;;;;4.80;0.90;;;;;;;16.46;81.94;96080.69;5043962;28;20048;-65
2021/07/06 04:44:00;;;;;;;1.85;0.70;;;;;;;16.43;81.17;96073.22;5045396;28;20053;-64
2021/07/06 04:46:26;;;;;;;3.20;0.85;;;;;;;16.60;81.35;96074.13;5043767;28;20049;-65
2021/07/06 04:48:51;;;;;;;1.55;0.90;;;;;;;16.84;79.71;96069.38;5048620;28;20102;-65
2021/07/06 04:51:16;;;;;;;1.35;1.08;;;;;;;17.18;78.38;96069.13;5047843;28;20474;-65
2021/07/06 04:53:43;;;;;;;3.35;0.82;;;;;;;17.65;77.39;96059.09;5069164;28;20068;-64
2021/07/06 04:56:09;;;;;;;2.25;1.15;;;;;;;18.76;72.47;96053.66;5048979;28;20111;-64
2021/07/06 04:58:37;;;;;;;1.73;0.88;;;;;;;19.82;68.16;96056.69;5046157;28;20075;-64
2021/07/06 05:01:02;;;;;;;1.27;0.57;;;;;;;20.88;63.56;96055.69;5048082;28;20047;-64
2021/07/06 05:03:29;;;;;;;1.83;0.60;;;;;;;22.86;56.52;96053.75;5048047;28;20541;-64
2021/07/06 05:05:55;;;;;;;1.50;0.68;;;;;;;24.92;49.74;96060.63;5046453;28;20427;-65
2021/07/06 05:08:21;;;;;;;3.05;0.82;;;;;;;24.34;49.63;96062.63;5045031;28;20124;-64
2021/07/06 05:10:46;;;;;;;2.03;0.60;;;;;;;;;;5042688;28;20099;-65
2021/07/06 05:13:12;;;;;;;6.28;1.05;;;;;;;20.46;63.01;96055.13;5044774;28;20506;-66
2021/07/06 05:15:38;;;;;;;1.17;0.60;;;;;;;20.61;63.22;96056.22;5051507;28;20396;-65
2021/07/06 05:18:05;;;;;;;1.02;0.63;;;;;;;21.18;60.62;96064.59;5049580;28;20053;-64
2021/07/06 05:20:31;;;;;;;1.67;0.73;;;;;;;21.07;61.39;96064.19;5062069;28;20077;-65
2021/07/06 05:22:56;;;;;;;0.98;0.60;;;;;;;20.56;62.67;96063.13;5035710;28;20127;-64
2021/07/06 05:25:22;;;;;;;0.93;0.60;;;;;;;20.75;62.52;96060.53;5047316;28;20530;-65
2021/07/06 05:27:47;;;;;;;1.50;0.70;;;;;;;20.07;63.30;96055.16;5061370;28;20117;-66
2021/07/06 05:30:14;;;;;;;1.25;0.60;;;;;;;20.21;64.26;96040.78;5042390;28;20833;-64
2021/07/06 05:32:39;;;;;;;4.57;0.77;;;;;;;20.67;62.53;96034.97;5052942;28;20048;-64
2021/07/06 05:35:08;;;;;;;3.95;0.80;;;;;;;21.48;59.56;96026.94;5044242;28;20056;-63
2021/07/06 05:37:36;;;;;;;2.63;0.60;;;;;;;21.54;60.34;96033.44;5055006;28;20091;-64
2021/07/06 05:40:07;;;;;;;2.50;0.85;;;;;;;20.49;61.99;96032.75;5056369;28;20043;-62
2021/07/06 05:42:34;;;;;;;1.17;0.70;;;;;;;20.21;64.02;96028.91;5045167;28;20048;-63
2021/07/06 05:44:59;;;;;;;3.60;0.80;;;;;;;20.86;60.76;96030.31;5041462;28;20123;-66
2021/07/06 05:47:25;;;;;;;1.27;0.50;;;;;;;20.84;60.99;96032.78;5048622;28;20151;-64
2021/07/06 05:49:50;;;;;;;2.67;0.60;;;;;;;22.57;56.56;96020.69;5044964;28;20053;-64
2021/07/06 05:52:15;;;;;;;2.25;0.60;;;;;;;23.44;53.44;96016.50;5060078;28;20049;-63
2021/07/06 05:54:41;;;;;;;0.95;0.60;;;;;;;22.09;56.31;96012.63;5065461;28;20048;-64
2021/07/06 05:57:06;;;;;;;1.08;0.65;;;;;;;22.40;55.43;96009.00;5045591;28;20048;-64
2021/07/06 05:59:32;;;;;;;1.55;0.52;;;;;;;21.37;58.22;96021.72;5042137;28;20048;-64
2021/07/06 06:01:57;;;;;;;0.93;0.50;;;;;;;22.07;57.62;96017.88;5053014;28;20497;-65
2021/07/06 06:04:23;;;;;;;4.15;0.73;;;;;;;22.79;56.54;96014.97;5056380;28;20803;-64
2021/07/06 06:06:48;;;;;;;2.25;0.50;;;;;;;23.53;52.46;96012.13;5055958;28;20661;-65
2021/07/06 06:09:14;;;;;;;0.45;0.30;;;;;;;24.68;50.57;96013.03;5044292;28;20494;-64
2021/07/06 06:11:39;;;;;;;1.38;0.50;;;;;;;24.46;50.55;96009.72;5045931;28;20112;-65
2021/07/06 06:14:04;;;;;;;1.75;0.40;;;;;;;23.47;52.09;95995.22;5030911;28;20037;-63
2021/07/06 06:16:30;;;;;;;4.43;0.50;;;;;;;24.30;51.57;95999.72;5050801;28;20063;-65
2021/07/06 06:18:56;;;;;;;1.38;0.60;;;;;;;24.09;51.98;95999.50;5031408;28;20514;-65
2021/07/06 06:21:26;;;;;;;2.70;0.55;;;;;;;25.72;48.02;96007.59;5038717;28;20060;-65
2021/07/06 06:23:52;;;;;;;2.30;0.38;;;;;;;25.06;48.11;96008.69;5041535;28;20049;-65
2021/07/06 06:26:18;;;;;;;2.55;0.50;;;;;;;27.71;42.08;96005.28;5043201;28;20050;-65
2021/07/06 06:28:43;;;;;;;2.38;0.50;;;;;;;26.36;45.45;96005.25;5043129;28;20041;-65
2021/07/06 06:31:09;;;;;;;2.65;0.50;;;;;;;25.68;46.28;96004.22;5043540;28;20075;-65
2021/07/06 06:33:34;;;;;;;1.95;0.68;;;;;;;25.43;48.04;96005.56;5052870;28;20169;-65
2021/07/06 06:36:00;;;;;;;0.93;0.45;;;;;;;26.09;46.31;96001.56;5050520;28;20106;-65
2021/07/06 06:38:25;;;;;;;1.65;0.50;;;;;;;25.65;46.11;96007.97;5044054;28;20571;-66
2021/07/06 06:40:51;;;;;;;1.08;0.57;;;;;;;26.69;44.68;96004.97;5053554;28;20067;-66
2021/07/06 06:43:17;;;;;;;2.15;0.77;;;;;;;27.32;42.47;96005.72;5040516;28;20151;-66
2021/07/06 06:45:42;;;;;;;2.08;0.43;;;;;;;25.63;45.84;96010.50;5053780;28;20602;-64
2021/07/06 06:48:08;;;;;;;1.35;0.40;;;;;;;25.09;46.97;96010.53;5044755;28;20114;-65
2021/07/06 06:50:33;;;;;;;2.28;0.60;;;;;;;25.67;47.35;96011.06;5043438;28;20045;-63
2021/07/06 06:52:59;;;;;;;4.20;0.38;;;;;;;28.50;41.27;96006.63;5034057;28;20140;-65
2021/07/06 06:55:24;;;;;;;2.08;0.60;;;;;;;27.20;41.10;96004.78;5050135;28;20056;-65
2021/07/06 06:57:50;;;;;;;2.85;0.45;;;;;;;28.98;37.95;96005.84;5041381;28;20076;-65
2021/07/06 07:00:16;;;;;;;2.17;0.77;;;;;;;26.93;42.69;96012.41;5038949;28;20056;-65
2021/07/06 07:02:43;;;;;;;2.03;0.60;;;;;;;28.05;40.71;96017.59;5051913;28;20101;-64
2021/07/06 07:05:11;;;;;;;1.05;0.50;;;;;;;28.90;39.38;96024.53;5053663;28;20540;-65
2021/07/06 07:07:37;;;;;;;0.55;0.35;;;;;;;26.72;43.46;96008.06;5049021;28;20105;-66
2021/07/06 07:10:05;;;;;;;1.10;0.50;;;;;;;26.74;41.93;96011.13;5051007;28;20511;-64
2021/07/06 07:12:30;;;;;;;0.73;0.40;;;;;;;25.65;45.36;96007.97;5049031;28;20097;-65
2021/07/06 07:14:56;;;;;;;0.85;0.50;;;;;;;25.46;46.29;96007.41;5044231;28;20075;-65
2021/07/06 07:17:22;;;;;;;1.55;0.47;;;;;;;25.27;47.93;95998.41;5038753;28;20095;-64
2021/07/06 07:19:48;;;;;;;3.15;0.40;;;;;;;24.75;47.48;95989.50;5048559;28;20037;-64
2021/07/06 07:22:14;;;;;;;2.95;0.47;;;;;;;25.22;48.24;95987.06;5043688;28;20048;-63
2021/07/06 07:24:39;;;;;;;2.40;0.60;;;;;;;28.84;39.92;95987.09;5058460;28;20743;-64
2021/07/06 07:27:05;;;;;;;1.63;0.60;;;;;;;30.55;36.26;95978.25;5039537;28;20040;-65
2021/07/06 07:29:31;;;;;;;2.15;0.40;;;;;;;29.40;38.48;95980.84;5042123;28;20045;-64
2021/07/06 07:31:57;;;;;;;6.65;1.00;;;;;;;29.87;37.42;95989.66;5034523;28;20371;-65
2021/07/06 07:34:22;;;;;;;0.82;0.30;;;;;;;29.90;36.43;95997.06;5040713;28;20049;-63
2021/07/06 07:36:48;;;;;;;1.10;0.40;;;;;;;29.70;36.84;95986.78;5037208;28;20422;-65
2021/07/06 07:39:14;;;;;;;2.65;1.00;;;;;;;28.84;38.88;96000.41;5031653;28;20033;-64
2021/07/06 07:41:39;;;;;;;1.60;0.60;;;;;;;29.33;37.04;95999.06;5036376;28;20106;-65
2021/07/06 07:44:05;;;;;;;7.28;0.60;;;;;;;29.81;36.26;96005.03;5029872;28;20571;-63
2021/07/06 07:46:31;;;;;;;0.32;0.30;;;;;;;29.98;36.47;96007.84;5038500;28;20052;-64
2021/07/06 07:48:56;;;;;;;1.27;0.57;;;;;;;29.26;35.19;96004.41;5025746;28;20136;-65
2021/07/06 07:51:22;;;;;;;1.17;0.52;;;;;;;30.45;34.13;96006.03;5038175;28;20519;-65
2021/07/06 07:53:47;;;;;;;2.60;0.50;;;;;;;32.31;31.68;96012.69;5037021;28;20041;-66
2021/07/06 07:56:13;;;;;;;1.98;0.47;;;;;;;32.16;35.13;96010.25;5021271;28;20045;-64
2021/07/06 07:58:39;;;;;;;1.92;0.50;;;;;;;31.87;35.26;96022.31;5047653;28;20554;-64
2021/07/06 08:01:05;;;;;;;4.72;0.60;;;;;;;31.26;36.78;96016.53;5033799;28;20090;-63
2021/07/06 08:03:30;;;;;;;1.00;0.40;;;;;;;31.14;38.66;96021.47;5040724;28;20083;-64
2021/07/06 08:05:59;;;;;;;1.35;0.55;;;;;;;31.56;38.05;96010.94;5040890;28;20041;-64
2021/07/06 08:08:26;;;;;;;3.50;0.60;;;;;;;31.86;37.55;96015.88;5039344;28;20419;-63
2021/07/06 08:10:52;;;;;;;2.20;0.45;;;;;;;31.45;37.52;96017.41;5041902;28;20077;-63
2021/07/06 08:13:22;;;;;;;1.50;0.63;;;;;;;30.79;39.87;96014.41;5043888;28;20041;-64
2021/07/06 08:15:48;;;;;;;1.63;0.60;;;;;;;29.93;41.96;96024.28;5040951;28;20045;-64
2021/07/06 08:18:14;;;;;;;2.15;0.70;;;;;;;29.17;42.42;96034.41;5037915;28;20095;-64
2021/07/06 08:20:39;;;;;;;0.82;0.47;;;;;;;28.07;44.98;96028.38;5042205;28;20040;-64
2021/07/06 08:23:04;;;;;;;1.15;0.50;;;;;;;28.27;44.70;96033.91;5036602;28;20122;-63
2021/07/06 08:25:30;;;;;;;5.10;1.00;;;;;;;27.77;45.74;96042.69;5041526;28;20460;-65
2021/07/06 08:27:55;;;;;;;1.25;0.75;;;;;;;27.16;46.75;96049.97;5037763;28;20099;-66
2021/07/06 08:30:21;;;;;;;3.40;0.80;;;;;;;27.85;46.08;96069.84;5037697;28;22176;-65
2021/07/06 08:32:46;;;;;;;1.55;0.85;;;;;;;27.00;47.84;96075.84;5045082;28;20049;-66
2021/07/06 08:35:12;;;;;;;3.50;0.75;;;;;;;26.93;48.87;96082.63;5035001;28;20034;-63
2021/07/06 08:37:38;;;;;;;4.07;1.08;;;;;;;27.53;48.37;96091.56;5050245;28;20486;-65
2021/07/06 08:40:07;;;;;;;1.30;0.75;;;;;;;27.44;47.97;96102.94;5033164;28;20095;-63
2021/07/06 08:42:33;;;;;;;2.42;1.20;;;;;;;27.04;47.89;96096.06;5042236;28;20040;-62
2021/07/06 08:44:59;;;;;;;1.45;0.73;;;;;;;26.49;49.57;96089.94;5041202;28;20048;-64
2021/07/06 08:47:25;;;;;;;1.65;0.90;;;;;;;26.88;48.27;96095.38;5039572;28;20059;-64
2021/07/06 08:49:53;;;;;;;5.70;0.75;;;;;;;27.65;46.67;96098.06;5043972;28;20052;-64
2021/07/06 08:52:19;;;;;;;3.33;0.90;;;;;;;27.25;46.31;96089.16;5043241;28;20136;-64
2021/07/06 08:54:48;;;;;;;2.95;0.80;;;;;;;27.38;46.75;96094.44;5040149;28;20128;-63
2021/07/06 08:57:13;;;;;;;2.63;0.80;;;;;;;27.35;46.42;96112.31;5036988;28;20497;-65
2021/07/06 08:59:40;;;;;;;3.30;0.80;;;;;;;27.32;45.25;96112.53;5037907;28;20053;-64
2021/07/06 09:02:10;;;;;;;6.30;1.05;;;;;;;27.84;44.34;96116.16;5035283;28;20044;-65
2021/07/06 09:04:50;;;;;;;3.05;1.05;;;;;;;28.79;42.94;96111.81;5042681;28;20090;-65
2021/07/06 09:07:17;;;;;;;3.33;1.02;;;;;;;28.46;44.34;96112.34;5036777;28;20094;-65
2021/07/06 09:09:42;;;;;;;2.08;0.88;;;;;;;28.60;45.13;96122.72;5039460;28;20044;-64
2021/07/06 09:12:12;;;;;;;1.50;0.68;;;;;;;28.51;44.55;96122.91;5040246;28;20048;-63
2021/07/06 09:14:41;;;;;;;5.43;0.65;;;;;;;28.34;44.90;96128.38;5035394;28;20092;-64
2021/07/06 09:17:17;;;;;;;2.25;0.60;;;;;;;28.16;45.58;96130.31;5036736;28;20068;-65
2021/07/06 09:19:48;;;;;;;1.35;0.80;;;;;;;28.76;44.51;96132.56;5039498;28;20033;-65
2021/07/06 09:22:25;;;;;;;1.45;0.52;;;;;;;28.42;43.86;96138.69;5035938;28;20135;-64
2021/07/06 09:25:04;;;;;;;2.45;0.70;;;;;;;28.73;43.22;96144.84;5036833;28;20040;-64
2021/07/06 09:27:32;;;;;;;5.45;0.70;;;;;;;28.89;43.28;96155.44;5038022;28;20049;-65
2021/07/06 09:30:13;;;;;;;4.40;0.82;;;;;;;28.53;43.96;96149.31;5035176;28;20041;-65
2021/07/06 09:32:43;;;;;;;5.88;0.98;;;;;;;29.01;43.19;96147.03;5052664;28;20052;-63
2021/07/06 09:35:22;;;;;;;1.85;0.57;;;;;;;29.16;42.41;96151.25;5010868;28;20041;-64
2021/07/06 09:37:51;;;;;;;1.23;0.52;;;;;;;28.87;42.28;96151.59;5049545;28;20048;-64
2021/07/06 09:40:38;;;;;;;3.03;0.73;;;;;;;29.26;41.45;96149.00;5041412;28;20390;-63
2021/07/06 09:43:27;;;;;;;0.70;0.40;;;;;;;29.01;41.97;96155.50;5037320;28;20041;-63
2021/07/06 09:45:56;;;;;;;0.77;0.50;;;;;;;28.84;42.95;96158.22;5040146;28;20371;-63
2021/07/06 09:48:22;;;;;;;2.22;0.68;;;;;;;29.32;42.24;96160.31;5034214;28;20041;-63
2021/07/06 09:50:48;;;;;;;1.98;0.60;;;;;;;29.75;41.06;96163.06;5043052;28;20053;-63
2021/07/06 09:53:28;;;;;;;1.58;0.50;;;;;;;29.83;40.13;96164.09;5036213;28;20513;-63
2021/07/06 09:55:54;;;;;;;1.30;0.70;;;;;;;29.59;41.67;96163.75;5049001;28;20068;-64
2021/07/06 09:58:20;;;;;;;1.17;0.82;;;;;;;29.76;39.91;96155.38;5015389;28;20036;-63
2021/07/06 10:00:45;;;;;;;1.50;0.65;;;;;;;29.53;38.95;96160.91;5040731;28;20110;-64
2021/07/06 10:03:11;;;;;;;1.25;0.80;;;;;;;29.69;39.58;96159.41;5035540;28;20033;-64
2021/07/06 10:05:37;;;;;;;1.48;0.68;;;;;;;29.69;40.22;96165.84;5042062;28;20041;-65
2021/07/06 10:08:03;;;;;;;3.05;1.88;;;;;;;29.71;40.80;96168.94;5038057;28;20103;-65
2021/07/06 10:10:28;;;;;;;1.80;0.93;;;;;;;29.20;41.58;96162.31;5030119;28;20531;-63
2021/07/06 10:12:56;;;;;;;5.38;0.82;;;;;;;29.38;42.74;96157.53;5041232;28;20123;-65
2021/07/06 10:15:23;;;;;;;3.40;0.80;;;;;;;29.52;42.58;96154.50;5034586;28;20112;-63
2021/07/06 10:17:51;;;;;;;2.35;0.80;;;;;;;29.26;43.42;96143.38;5021419;28;20049;-64
2021/07/06 10:20:22;;;;;;;4.13;1.00;;;;;;;28.93;44.46;96143.94;5037142;28;20157;-63
2021/07/06 10:22:50;;;;;;;1.90;1.10;;;;;;;29.09;43.71;96134.78;5038326;28;20059;-63
2021/07/06 10:25:15;;;;;;;3.20;0.93;;;;;;;29.38;43.20;96130.06;5031028;28;20060;-64
2021/07/06 10:27:50;;;;;;;2.40;1.23;;;;;;;28.90;43.93;96134.44;5040969;28;20048;-64
2021/07/06 10:30:19;;;;;;;3.45;1.00;;;;;;;28.94;44.14;96132.16;5019869;28;20517;-63
2021/07/06 10:32:44;;;;;;;;;;;;;;;28.78;45.13;96132.84;5049424;28;20075;-64
2021/07/06 10:35:14;;;;;;;5.37;1.10;;;;;;;28.73;44.13;96131.50;5039557;28;19986;-63
2021/07/06 10:37:40;;;;;;;4.10;1.15;;;;;;;28.72;43.89;96135.63;5052988;28;20321;-64
2021/07/06 10:40:42;;;;;;;2.85;1.23;;;;;;;28.60;45.00;96145.25;5045791;28;20044;-63
2021/07/06 10:43:07;;;;;;;3.88;1.33;;;;;;;28.48;45.29;96152.06;5024361;28;20445;-64
2021/07/06 10:45:34;;;;;;;3.75;1.40;;;;;;;28.95;45.26;96153.41;5043216;28;20036;-63
2021/07/06 10:48:00;;;;;;;4.28;1.20;;;;;;;29.29;43.98;96150.81;5041323;28;20045;-63
2021/07/06 10:50:44;;;;;;;2.13;1.42;;;;;;;29.28;45.31;96140.03;5033530;28;20697;-64
2021/07/06 10:53:23;;;;;;;2.65;1.38;;;;;;;29.08;44.07;96149.38;5023365;28;20045;-65
2021/07/06 10:56:06;;;;;;;5.60;1.23;;;;;;;29.09;45.07;96168.63;5047757;28;20060;-64
2021/07/06 10:58:54;;;;;;;3.50;1.05;;;;;;;29.52;44.24;96162.97;5039263;28;20508;-64
2021/07/06 11:01:41;;;;;;;1.43;0.97;;;;;;;29.67;44.99;96162.75;5033650;28;20513;-63
2021/07/06 11:04:08;;;;;;;1.38;0.80;;;;;;;29.38;44.37;96147.00;5030955;28;20412;-64
2021/07/06 11:06:47;;;;;;;3.55;1.25;;;;;;;29.51;43.60;96146.53;5040875;28;20378;-64
2021/07/06 11:09:12;;;;;;;5.07;1.23;;;;;;;29.50;45.42;96147.81;5040911;28;20041;-64
2021/07/06 11:11:38;;;;;;;2.35;1.10;;;;;;;29.63;44.15;96161.47;5045739;28;20551;-64
2021/07/06 11:14:26;;;;;;;2.00;1.17;;;;;;;29.52;43.79;96162.97;5042863;28;20530;-64
2021/07/06 11:16:59;;;;;;;5.68;1.13;;;;;;;29.66;43.79;96174.56;5039864;28;20444;-63
2021/07/06 11:19:35;;;;;;;3.53;1.35;;;;;;;30.13;42.78;96171.38;5016007;28;20036;-64
2021/07/06 11:22:12;;;;;;;2.70;1.20;;;;;;;29.77;44.32;96176.69;5041600;28;20501;-63
2021/07/06 11:24:40;;;;;;;2.95;1.20;;;;;;;29.96;43.03;96172.09;5038603;28;20047;-64
2021/07/06 11:27:05;;;;;;;4.30;1.48;;;;;;;29.56;44.45;96174.00;5037288;28;20127;-64
2021/07/06 11:29:38;;;;;;;4.55;1.30;;;;;;;29.46;45.65;96169.84;5037144;28;20167;-64
2021/07/06 11:32:18;;;;;;;2.22;1.35;;;;;;;29.12;45.43;96175.31;5045432;28;20059;-64
2021/07/06 11:34:45;;;;;;;2.22;1.20;;;;;;;28.64;46.25;96171.16;5051260;28;20118;-63